This is the latest recevied weather packets stored in our database for station/object KB4JHU-15. If no packets are shown the sender has not sent any weather packets the latest 1 day(s).
| Time | Temp. | Humidity | Pressure | Rain* | Wind** | Luminosity | Snow |
|---|---|---|---|---|---|---|---|
| 1778092656 | 19.44° C | 94% | - | 3.81 mm | - | - | - |
| 1778087253 | 20.56° C | 90% | - | 0.51 mm | - | - | - |
| 1778080049 | 20° C | 98% | - | 0 mm | - | - | - |
| 1778074646 | 17.78° C | 98% | - | 6.1 mm | - | - | - |
| 1778067442 | 18.89° C | 95% | - | 7.37 mm | - | - | - |
| 1778063840 | 18.89° C | 92% | - | 2.03 mm | - | - | - |
| 1778060238 | 20° C | 84% | - | 0 mm | - | - | - |
| 1778058437 | 20.56° C | 76% | - | 0 mm | - | - | - |
| 1778056636 | 21.11° C | 72% | - | 0 mm | - | - | - |
| 1778054835 | 21.67° C | 68% | - | 0 mm | - | - | - |
| 1778053034 | 21.67° C | 67% | - | 0 mm | - | - | - |
| 1778051233 | 21.67° C | 66% | - | 0 mm | - | - | - |
| 1778047631 | 22.22° C | 63% | - | 0 mm | - | - | - |
| 1778038626 | 21.11° C | 66% | - | 0 mm | - | - | - |
| 1778035024 | 21.11° C | 66% | - | 0 mm | - | - | - |
| 1778031422 | 21.11° C | 62% | - | 0 mm | - | - | - |
| 1778029621 | 21.11° C | 62% | - | 0 mm | - | - | - |
| 1778027820 | 21.67° C | 60% | - | 0 mm | - | - | - |
| 1778013412 | 21.67° C | 55% | - | 0 mm | - | - | - |
| 1778008009 | 22.78° C | 45% | - | 0 mm | - | - | - |
* Rain latest hour (hover to see other rain measurements)
** Current wind speed in m/s (hover to see current wind gust speed)